Time;durP1;ratioP1;P1;durP2;ratioP2;P2;SDS_P1;SDS_P2;PMS_P1;PMS_P2;Temp;Humidity;BMP_temperature;BMP_pressure;BME280_temperature;BME280_humidity;BME280_pressure;Samples;Min_cycle;Max_cycle;Signal;HPM_P1;HPM_P2
2021/04/18 00:01:58;;;;;;;5.55;5.05;;;;;;;4.02;73.90;96741.88;5054571;28;20049;-78
2021/04/18 00:04:26;;;;;;;5.97;5.45;;;;;;;3.98;74.05;96742.38;5054541;28;20052;-78
2021/04/18 00:06:52;;;;;;;8.52;6.38;;;;;;;3.95;74.00;96745.31;5054232;28;20033;-78
2021/04/18 00:09:18;;;;;;;5.15;4.75;;;;;;;3.93;74.13;96737.72;5013967;28;20060;-77
2021/04/18 00:11:44;;;;;;;6.13;4.93;;;;;;;3.94;74.45;96733.31;5054274;28;20036;-79
2021/04/18 00:14:11;;;;;;;5.25;4.85;;;;;;;3.94;74.47;96735.91;5054161;28;20045;-78
2021/04/18 00:16:38;;;;;;;5.38;4.88;;;;;;;3.95;74.62;96727.16;5036228;28;20393;-78
2021/04/18 00:19:05;;;;;;;5.53;5.03;;;;;;;3.97;74.46;96730.38;5042451;28;20037;-78
2021/04/18 00:21:32;;;;;;;6.60;4.78;;;;;;;3.98;74.59;96729.41;5054372;28;20484;-78
2021/04/18 00:23:58;;;;;;;6.13;5.53;;;;;;;3.99;74.74;96731.03;5053698;28;20484;-78
2021/04/18 00:26:25;;;;;;;5.90;5.38;;;;;;;3.99;74.58;96718.03;5053360;28;20052;-78
2021/04/18 00:28:51;;;;;;;6.07;5.53;;;;;;;3.97;74.85;96725.19;5052619;28;20071;-78
2021/04/18 00:31:17;;;;;;;6.53;5.93;;;;;;;3.94;74.64;96718.56;5053624;28;20048;-77
2021/04/18 00:33:44;;;;;;;5.82;5.43;;;;;;;3.92;74.84;96722.31;5053901;28;20044;-78
2021/04/18 00:36:10;;;;;;;6.25;5.75;;;;;;;3.90;75.00;96716.47;5053852;28;20048;-78
2021/04/18 00:38:36;;;;;;;6.60;5.95;;;;;;;3.88;75.21;96714.03;5054112;28;20037;-78
2021/04/18 00:41:03;;;;;;;6.53;5.93;;;;;;;3.85;75.11;96704.81;5053774;28;20044;-78
2021/04/18 00:43:29;;;;;;;6.07;5.47;;;;;;;3.82;75.32;96712.94;5053416;28;20041;-77
2021/04/18 00:45:55;;;;;;;5.82;5.32;;;;;;;3.84;75.29;96710.16;5052763;28;20053;-78
2021/04/18 00:48:22;;;;;;;5.40;4.97;;;;;;;3.83;75.35;96706.78;5035873;28;20041;-78
2021/04/18 00:50:48;;;;;;;5.82;5.28;;;;;;;3.84;75.28;96705.81;5053647;28;20397;-78
2021/04/18 00:53:14;;;;;;;5.80;5.30;;;;;;;3.85;75.48;96707.41;5053557;28;20381;-78
2021/04/18 00:55:43;;;;;;;5.82;5.30;;;;;;;3.88;75.52;96710.66;5035579;28;20045;-78
2021/04/18 00:58:11;;;;;;;5.65;5.15;;;;;;;3.89;75.38;96701.91;5050118;28;20049;-78
2021/04/18 01:00:38;;;;;;;5.68;5.18;;;;;;;3.90;75.72;96704.31;5053403;28;20374;-78
2021/04/18 01:03:06;;;;;;;6.13;5.53;;;;;;;3.91;75.64;96710.31;5053178;28;20036;-78
2021/04/18 01:05:33;;;;;;;6.28;5.68;;;;;;;3.87;75.58;96699.47;5052405;28;20501;-78
2021/04/18 01:08:00;;;;;;;6.10;5.50;;;;;;;3.85;75.55;96707.41;5053279;28;20385;-78
2021/04/18 01:10:27;;;;;;;6.13;5.53;;;;;;;3.85;75.64;96704.03;5018910;28;20041;-78
2021/04/18 01:12:53;;;;;;;5.72;5.25;;;;;;;3.89;75.65;96705.28;5053032;28;20029;-78
2021/04/18 01:15:19;;;;;;;5.55;5.15;;;;;;;3.89;75.61;96700.09;5053698;28;20500;-78
2021/04/18 01:17:46;;;;;;;6.72;5.20;;;;;;;3.91;75.77;96705.94;5053422;28;20473;-78
2021/04/18 01:20:19;;;;;;;5.53;5.05;;;;;;;3.91;75.61;96703.34;5052939;28;20402;-78
2021/04/18 01:22:46;;;;;;;6.35;5.75;;;;;;;3.91;75.74;96700.75;5053364;28;20036;-77
2021/04/18 01:25:13;;;;;;;5.72;5.25;;;;;;;3.94;75.65;96700.41;5053299;28;20033;-78
2021/04/18 01:27:43;;;;;;;5.57;5.07;;;;;;;3.93;75.52;96692.81;5043690;28;20049;-79
2021/04/18 01:30:24;;;;;;;5.38;4.88;;;;;;;3.92;75.74;96694.56;5073326;28;20044;-79
2021/04/18 01:32:53;;;;;;;5.82;5.32;;;;;;;3.94;75.81;96695.19;5043760;28;20045;-79
2021/04/18 01:35:20;;;;;;;5.65;5.15;;;;;;;3.94;75.62;96695.19;5071936;28;20036;-79
2021/04/18 01:37:46;;;;;;;6.63;5.97;;;;;;;3.96;75.75;96695.03;5072983;28;20033;-81
2021/04/18 01:40:17;;;;;;;5.75;5.25;;;;;;;3.96;75.73;96695.03;5071842;28;20044;-79
2021/04/18 01:42:45;;;;;;;6.10;5.55;;;;;;;3.96;75.75;96689.84;5072364;28;20051;-80
2021/04/18 01:45:13;;;;;;;5.93;5.40;;;;;;;3.93;75.77;96691.00;5073091;28;20037;-81
2021/04/18 01:47:40;;;;;;;6.32;5.72;;;;;;;3.91;75.79;96687.78;5060830;28;20048;-79
2021/04/18 01:50:08;;;;;;;6.00;5.50;;;;;;;3.89;75.88;96688.94;5070685;28;20056;-80
2021/04/18 01:52:36;;;;;;;6.20;5.60;;;;;;;3.90;76.04;96690.53;5041354;28;20028;-80
2021/04/18 01:55:04;;;;;;;6.28;5.55;;;;;;;3.88;76.15;96684.69;5072290;28;20028;-80
2021/04/18 01:57:30;;;;;;;6.32;5.65;;;;;;;3.88;76.17;96679.50;5072955;28;20484;-80
2021/04/18 01:59:56;;;;;;;6.05;5.47;;;;;;;3.87;76.05;96686.50;5071547;28;20389;-80
2021/04/18 02:02:22;;;;;;;6.05;5.55;;;;;;;3.86;75.94;96682.28;5054846;28;20040;-80
2021/04/18 02:04:48;;;;;;;6.38;5.88;;;;;;;3.86;76.02;96687.47;5072771;28;20378;-77
2021/04/18 02:07:14;;;;;;;6.93;6.10;;;;;;;3.84;75.95;96687.66;5071339;28;20040;-81
2021/04/18 02:09:41;;;;;;;5.82;5.35;;;;;;;3.80;76.01;96681.19;5072095;28;20492;-78
2021/04/18 02:12:09;;;;;;;6.32;5.72;;;;;;;3.76;75.91;96672.13;5076326;28;20397;-78
2021/04/18 02:14:35;;;;;;;6.15;5.50;;;;;;;3.73;75.92;96675.03;5076664;28;20043;-78
2021/04/18 02:17:03;;;;;;;6.80;6.13;;;;;;;3.71;76.17;96674.41;5076379;28;20385;-79
2021/04/18 02:19:30;;;;;;;6.35;5.75;;;;;;;3.69;76.19;96678.94;5076223;28;20036;-79
2021/04/18 02:21:57;;;;;;;5.93;5.43;;;;;;;3.68;76.17;96679.13;5074979;28;20515;-77
2021/04/18 02:24:23;;;;;;;7.07;6.40;;;;;;;3.67;76.33;96678.31;5076289;28;20033;-79
2021/04/18 02:26:50;;;;;;;7.65;6.70;;;;;;;3.68;76.49;96682.53;5075993;28;20037;-79
2021/04/18 02:29:16;;;;;;;6.03;5.43;;;;;;;3.67;76.26;96680.91;5075720;28;20056;-77
2021/04/18 02:31:42;;;;;;;7.03;6.32;;;;;;;3.69;76.27;96678.13;5075834;28;20049;-77
2021/04/18 02:34:09;;;;;;;5.85;5.35;;;;;;;3.70;76.48;96684.97;5076230;28;20508;-78
2021/04/18 02:36:36;;;;;;;6.30;5.70;;;;;;;3.71;76.56;96678.78;5076090;28;20037;-80
2021/04/18 02:39:04;;;;;;;6.68;6.07;;;;;;;3.72;76.35;96675.22;5075389;28;20024;-80
2021/04/18 02:41:31;;;;;;;8.35;6.20;;;;;;;3.72;76.41;96686.41;5075842;28;20044;-79
2021/04/18 02:43:57;;;;;;;6.82;5.85;;;;;;;3.74;76.41;96679.25;5074798;28;20063;-77
2021/04/18 02:46:23;;;;;;;6.60;5.88;;;;;;;3.75;76.51;96677.47;5076116;28;20043;-79
2021/04/18 02:48:49;;;;;;;6.25;5.65;;;;;;;3.76;76.59;96684.25;5074714;28;20033;-80
2021/04/18 02:51:16;;;;;;;5.95;5.45;;;;;;;3.75;76.65;96680.88;5076383;28;20032;-80
2021/04/18 02:53:42;;;;;;;6.20;5.70;;;;;;;3.76;76.51;96679.06;5075511;28;20044;-82
2021/04/18 02:56:08;;;;;;;6.38;5.78;;;;;;;3.78;76.44;96680.53;5041360;28;20043;-82
2021/04/18 02:58:34;;;;;;;7.03;6.32;;;;;;;3.80;76.45;96682.94;5056971;28;20056;-80
2021/04/18 03:01:01;;;;;;;6.20;5.60;;;;;;;3.80;76.26;96683.78;5075271;28;20075;-80
2021/04/18 03:03:27;;;;;;;6.85;6.22;;;;;;;3.79;76.20;96687.34;5074896;28;20048;-81
2021/04/18 03:05:54;;;;;;;6.00;5.50;;;;;;;3.78;76.31;96680.53;5076009;28;20032;-80
2021/04/18 03:08:20;;;;;;;6.13;5.25;;;;;;;3.80;76.38;96685.53;5075566;28;20385;-81
2021/04/18 03:10:46;;;;;;;5.88;5.38;;;;;;;3.77;76.33;96678.09;5075945;28;20489;-81
2021/04/18 03:13:12;;;;;;;6.47;5.88;;;;;;;3.76;76.18;96682.50;5057497;28;20477;-80
2021/04/18 03:15:38;;;;;;;5.78;5.28;;;;;;;3.72;76.10;96677.81;5073696;28;20053;-80
2021/04/18 03:18:05;;;;;;;6.65;5.95;;;;;;;3.69;76.18;96675.53;5072997;28;20036;-80
2021/04/18 03:20:31;;;;;;;6.15;5.65;;;;;;;3.67;76.40;96678.31;5074831;28;20390;-82
2021/04/18 03:22:57;;;;;;;6.25;5.50;;;;;;;3.62;76.23;96673.63;5074917;28;20032;-81
2021/04/18 03:25:24;;;;;;;6.63;6.05;;;;;;;3.61;76.07;96676.38;5057359;28;20484;-81
2021/04/18 03:27:50;;;;;;;6.60;6.00;;;;;;;3.56;76.47;96678.69;5073748;28;20060;-81
2021/04/18 03:30:16;;;;;;;6.78;6.18;;;;;;;3.52;76.25;96675.59;5057519;28;20052;-81
2021/04/18 03:32:43;;;;;;;6.05;5.50;;;;;;;3.50;76.56;96681.94;5074963;28;20043;-80
2021/04/18 03:35:10;;;;;;;6.97;5.85;;;;;;;3.51;76.51;96676.59;5057549;28;20056;-82
2021/04/18 03:37:36;;;;;;;7.32;6.63;;;;;;;3.51;76.59;96679.19;5074015;28;20046;-82
2021/04/18 03:40:03;;;;;;;6.30;5.80;;;;;;;3.52;76.59;96678.19;5075481;28;20045;-78
2021/04/18 03:42:29;;;;;;;6.65;6.07;;;;;;;3.52;76.79;96674.81;5074588;28;20055;-80
2021/04/18 03:44:55;;;;;;;7.00;6.32;;;;;;;3.52;76.59;96670.41;5056330;28;20385;-79
2021/04/18 03:47:21;;;;;;;6.88;6.28;;;;;;;3.52;76.78;96680.00;5073466;28;20051;-79
2021/04/18 03:49:48;;;;;;;7.15;6.45;;;;;;;3.50;76.81;96671.56;5073577;28;20041;-80
2021/04/18 03:52:14;;;;;;;7.35;6.68;;;;;;;3.48;76.66;96671.72;5074417;28;20048;-78
2021/04/18 03:54:40;;;;;;;7.65;6.72;;;;;;;3.48;76.89;96671.72;5074313;28;20040;-80
2021/04/18 03:57:06;;;;;;;6.53;6.03;;;;;;;3.51;76.81;96671.41;5073145;28;20043;-80
2021/04/18 03:59:32;;;;;;;6.90;6.30;;;;;;;3.51;76.88;96670.56;5056694;28;20400;-79
2021/04/18 04:01:59;;;;;;;7.95;6.90;;;;;;;3.48;76.84;96666.53;5073691;28;20394;-78
2021/04/18 04:04:25;;;;;;;7.88;7.18;;;;;;;3.45;76.74;96665.09;5072362;28;20048;-78
2021/04/18 04:06:52;;;;;;;7.75;7.05;;;;;;;3.44;77.01;96670.44;5073560;28;20049;-78
2021/04/18 04:09:18;;;;;;;7.50;6.43;;;;;;;3.45;76.87;96666.88;5073166;28;20032;-77
2021/04/18 04:11:45;;;;;;;8.18;7.47;;;;;;;3.44;76.94;96671.28;5073516;28;20040;-78
2021/04/18 04:14:11;;;;;;;7.72;7.03;;;;;;;3.43;76.97;96668.84;5073947;28;20033;-79
2021/04/18 04:16:37;;;;;;;7.30;6.60;;;;;;;3.44;77.14;96673.03;5074169;28;20032;-79
2021/04/18 04:19:03;;;;;;;7.25;6.55;;;;;;;3.43;77.07;96674.03;5074290;28;20036;-78
2021/04/18 04:21:29;;;;;;;9.27;6.68;;;;;;;3.40;77.11;96674.34;5074104;28;20041;-78
2021/04/18 04:23:56;;;;;;;9.40;7.50;;;;;;;3.36;76.94;96665.28;5073566;28;20044;-78
2021/04/18 04:26:22;;;;;;;7.88;7.15;;;;;;;3.33;77.00;96671.63;5072802;28;20051;-78
2021/04/18 04:28:48;;;;;;;8.05;7.28;;;;;;;3.30;77.14;96674.56;5072561;28;20052;-79
2021/04/18 04:31:14;;;;;;;7.47;6.85;;;;;;;3.28;77.27;96675.69;5073758;28;20052;-79
2021/04/18 04:33:41;;;;;;;8.98;7.15;;;;;;;3.30;77.14;96669.38;5072725;28;20049;-78
2021/04/18 04:36:07;;;;;;;7.78;7.07;;;;;;;3.31;77.32;96680.53;5073651;28;20500;-77
2021/04/18 04:38:34;;;;;;;8.32;7.63;;;;;;;3.29;77.14;96677.31;5073859;28;20025;-79
2021/04/18 04:41:01;;;;;;;8.07;7.35;;;;;;;3.29;77.35;96678.09;5073981;28;20032;-81
2021/04/18 04:43:27;;;;;;;8.45;7.65;;;;;;;3.25;77.16;96685.44;5072290;28;20056;-80
2021/04/18 04:45:53;;;;;;;8.82;8.02;;;;;;;3.22;77.38;96684.94;5073902;28;20055;-80
2021/04/18 04:48:21;;;;;;;8.75;7.95;;;;;;;3.20;77.47;96689.47;5073081;28;20055;-80
2021/04/18 04:50:48;;;;;;;8.60;7.70;;;;;;;3.16;77.58;96686.41;5073633;28;20037;-80
2021/04/18 04:53:14;;;;;;;9.10;8.20;;;;;;;3.17;77.78;96693.22;5073335;28;20496;-82
2021/04/18 04:55:42;;;;;;;9.23;8.32;;;;;;;3.16;77.62;96690.78;5073304;28;20036;-82
2021/04/18 04:58:09;;;;;;;7.97;7.28;;;;;;;3.15;77.75;96686.56;5072250;28;20037;-81
2021/04/18 05:00:35;;;;;;;9.55;8.75;;;;;;;3.13;77.90;96688.50;5073259;28;20073;-81
2021/04/18 05:03:02;;;;;;;10.07;7.90;;;;;;;3.14;77.91;96685.75;5072724;28;20397;-81
2021/04/18 05:05:28;;;;;;;8.80;7.97;;;;;;;3.12;77.88;96692.09;5073374;28;20033;-80
2021/04/18 05:07:54;;;;;;;9.20;8.32;;;;;;;3.12;78.15;96689.50;5072418;28;20049;-81
2021/04/18 05:10:20;;;;;;;9.88;8.85;;;;;;;3.14;78.26;96692.72;5073546;28;20036;-81
2021/04/18 05:12:47;;;;;;;9.52;8.65;;;;;;;3.12;78.21;96690.28;5072997;28;20043;-81
2021/04/18 05:15:13;;;;;;;9.15;8.38;;;;;;;3.15;78.16;96697.75;5073114;28;20215;-80
2021/04/18 05:17:39;;;;;;;9.10;8.30;;;;;;;3.12;78.08;96702.44;5071543;28;21488;-81
2021/04/18 05:20:06;;;;;;;9.23;8.43;;;;;;;3.09;78.14;96695.81;5071718;28;20090;-81
2021/04/18 05:22:32;;;;;;;8.88;7.97;;;;;;;3.11;78.41;96706.81;5073064;28;20048;-81
2021/04/18 05:24:59;;;;;;;9.20;8.30;;;;;;;3.12;78.31;96705.03;5071718;28;20029;-81
2021/04/18 05:27:25;;;;;;;10.15;9.00;;;;;;;3.09;78.47;96711.38;5070287;28;20052;-78
2021/04/18 05:29:52;;;;;;;10.02;9.02;;;;;;;3.10;78.64;96704.38;5052068;28;20514;-81
2021/04/18 05:32:19;;;;;;;9.95;9.00;;;;;;;3.10;78.58;96709.56;5053171;28;20488;-82
2021/04/18 05:34:48;;;;;;;10.52;9.45;;;;;;;3.12;78.89;96713.63;5017917;28;20041;-82
2021/04/18 05:37:14;;;;;;;9.85;8.95;;;;;;;3.12;78.72;96713.63;5053098;28;20400;-82
2021/04/18 05:39:40;;;;;;;9.80;8.82;;;;;;;3.12;78.70;96713.63;5035087;28;20033;-81
2021/04/18 05:42:07;;;;;;;10.63;8.68;;;;;;;3.17;79.07;96716.53;5053151;28;20362;-81
2021/04/18 05:44:33;;;;;;;8.75;7.95;;;;;;;3.23;78.99;96721.06;5036471;28;20397;-81
2021/04/18 05:46:59;;;;;;;9.00;8.10;;;;;;;3.28;79.02;96719.75;5022742;28;20048;-81
2021/04/18 05:49:25;;;;;;;9.43;8.57;;;;;;;3.32;78.75;96724.44;5039024;28;20044;-82
2021/04/18 05:51:52;;;;;;;8.73;7.90;;;;;;;3.39;78.65;96722.00;5039100;28;20461;-82
2021/04/18 05:54:18;;;;;;;8.52;7.80;;;;;;;3.46;78.69;96712.56;5039057;28;20041;-82
2021/04/18 05:56:44;;;;;;;9.50;8.60;;;;;;;3.54;78.89;96722.13;5038579;28;20049;-82
2021/04/18 05:59:10;;;;;;;9.05;8.15;;;;;;;3.61;78.60;96726.47;5022530;28;20033;-82
2021/04/18 06:01:36;;;;;;;9.23;8.32;;;;;;;3.64;78.68;96717.56;5056640;28;20037;-82
2021/04/18 06:04:03;;;;;;;10.05;9.02;;;;;;;3.66;78.65;96720.78;5056927;28;20045;-82
2021/04/18 06:06:38;;;;;;;9.57;8.68;;;;;;;3.67;78.72;96722.38;5022342;28;20041;-82
2021/04/18 06:09:04;;;;;;;10.18;8.95;;;;;;;3.67;78.60;96727.56;5039159;28;20037;-82
2021/04/18 06:11:30;;;;;;;8.70;7.85;;;;;;;3.70;78.80;96723.88;5038615;28;20032;-82
2021/04/18 06:13:57;;;;;;;10.32;9.38;;;;;;;3.71;78.63;96725.47;5056590;28;20048;-83
2021/04/18 06:16:23;;;;;;;9.45;8.48;;;;;;;3.73;78.47;96731.31;5039741;28;20040;-82
2021/04/18 06:18:49;;;;;;;9.68;8.77;;;;;;;3.75;78.66;96735.34;5038708;28;20048;-77
2021/04/18 06:21:16;;;;;;;10.02;8.93;;;;;;;3.80;78.77;96737.41;5056920;28;20037;-78
2021/04/18 06:23:42;;;;;;;10.02;9.13;;;;;;;3.82;78.65;96728.50;5056211;28;20032;-79
2021/04/18 06:26:08;;;;;;;8.73;7.90;;;;;;;3.84;78.63;96728.31;5056461;28;20048;-81
2021/04/18 06:28:35;;;;;;;9.35;8.55;;;;;;;3.83;78.64;96727.53;5055924;28;20065;-81
2021/04/18 06:31:02;;;;;;;9.63;8.73;;;;;;;3.81;78.56;96726.88;5055098;28;20444;-80
2021/04/18 06:33:28;;;;;;;9.77;8.57;;;;;;;3.81;78.45;96729.47;5055999;28;20045;-80
2021/04/18 06:35:54;;;;;;;9.77;8.90;;;;;;;3.85;78.76;96730.75;5055755;28;20044;-81
2021/04/18 06:38:20;;;;;;;9.38;8.57;;;;;;;3.89;78.81;96731.25;5055865;28;20465;-81
2021/04/18 06:40:51;;;;;;;9.82;8.88;;;;;;;3.92;79.02;96733.47;5055956;28;20445;-81
2021/04/18 06:43:21;;;;;;;9.63;8.73;;;;;;;3.94;78.63;96725.53;5046003;28;20029;-81
2021/04/18 06:45:52;;;;;;;10.35;9.45;;;;;;;4.00;78.70;96738.66;5055620;28;20048;-81
2021/04/18 06:48:19;;;;;;;10.77;9.88;;;;;;;4.04;78.92;96733.94;5056652;28;20037;-80
2021/04/18 06:50:49;;;;;;;10.48;9.48;;;;;;;4.10;78.72;96742.84;5055894;28;20033;-80
2021/04/18 06:53:16;;;;;;;10.30;9.30;;;;;;;4.12;78.50;96739.09;5055591;28;20025;-79
2021/04/18 06:55:43;;;;;;;10.40;9.50;;;;;;;4.18;78.48;96732.38;5053759;28;20040;-81
2021/04/18 06:58:11;;;;;;;10.27;9.38;;;;;;;4.20;78.25;96730.44;5037727;28;20461;-77
2021/04/18 07:00:37;;;;;;;9.52;8.60;;;;;;;4.20;78.38;96736.47;5037620;28;20073;-78
2021/04/18 07:03:23;;;;;;;9.02;8.23;;;;;;;4.26;78.45;96745.31;5055302;28;20040;-78
2021/04/18 07:05:52;;;;;;;9.27;8.40;;;;;;;4.30;78.42;96745.81;5044038;28;20068;-78
2021/04/18 07:08:21;;;;;;;9.27;8.50;;;;;;;4.36;78.52;96747.72;5055234;28;20493;-78
2021/04/18 07:10:48;;;;;;;10.48;8.55;;;;;;;4.37;78.10;96739.78;5037364;28;20028;-79
2021/04/18 07:13:17;;;;;;;9.73;8.75;;;;;;;4.40;78.18;96738.59;5055136;28;20049;-78
2021/04/18 07:15:45;;;;;;;8.85;8.15;;;;;;;4.43;78.02;96738.25;5055230;28;20040;-79
2021/04/18 07:18:14;;;;;;;7.95;7.25;;;;;;;4.43;77.88;96738.25;5055013;28;20039;-78
2021/04/18 07:20:55;;;;;;;8.55;7.85;;;;;;;4.46;77.77;96743.13;5054863;28;20036;-79
2021/04/18 07:23:28;;;;;;;8.73;8.02;;;;;;;4.48;77.67;96734.16;5054963;28;20049;-79
2021/04/18 07:25:58;;;;;;;8.23;7.53;;;;;;;4.54;77.42;96735.28;5054792;28;20040;-79
2021/04/18 07:28:26;;;;;;;7.90;7.20;;;;;;;4.60;77.58;96729.41;5054745;28;20049;-77
2021/04/18 07:31:02;;;;;;;7.65;6.88;;;;;;;4.70;77.52;96728.34;5054814;28;20075;-78
2021/04/18 07:33:29;;;;;;;7.68;6.95;;;;;;;4.77;77.53;96731.88;5053927;28;20045;-78
2021/04/18 07:35:56;;;;;;;7.38;6.78;;;;;;;4.88;77.31;96728.88;5055086;28;20033;-78
2021/04/18 07:38:25;;;;;;;8.13;7.38;;;;;;;4.94;77.38;96735.16;5053795;28;20060;-78
2021/04/18 07:40:55;;;;;;;8.20;7.50;;;;;;;5.00;76.98;96726.66;5037239;28;20391;-77
2021/04/18 07:43:21;;;;;;;7.65;6.95;;;;;;;5.05;76.69;96727.72;5054764;28;20036;-78
2021/04/18 07:45:49;;;;;;;6.97;6.38;;;;;;;5.12;76.54;96730.44;5054596;28;20048;-78
2021/04/18 07:48:17;;;;;;;7.47;6.88;;;;;;;5.17;76.54;96729.94;5053712;28;20040;-78
2021/04/18 07:50:46;;;;;;;6.65;5.90;;;;;;;5.21;76.26;96726.78;5054339;28;20040;-79
2021/04/18 07:53:17;;;;;;;7.32;6.72;;;;;;;5.22;75.84;96720.59;5036439;28;20052;-78
2021/04/18 07:55:45;;;;;;;8.57;7.78;;;;;;;5.24;76.25;96731.63;5054533;28;20048;-78
2021/04/18 07:58:11;;;;;;;7.30;6.60;;;;;;;5.28;75.90;96725.09;5054569;28;20044;-80
2021/04/18 08:00:38;;;;;;;7.70;7.07;;;;;;;5.36;75.96;96724.22;5054210;28;20041;-78
2021/04/18 08:03:05;;;;;;;7.60;6.75;;;;;;;5.38;75.10;96727.44;5036720;28;20036;-78
2021/04/18 08:05:33;;;;;;;8.00;7.20;;;;;;;5.40;75.01;96724.66;5053364;28;20041;-79
2021/04/18 08:08:10;;;;;;;7.70;6.90;;;;;;;5.31;73.12;96723.91;5039969;28;20045;-78
2021/04/18 08:10:42;;;;;;;9.70;7.80;;;;;;;5.24;73.93;96723.03;5053328;28;20374;-78
2021/04/18 08:13:23;;;;;;;11.60;7.78;;;;;;;5.36;74.49;96720.81;5043752;28;20029;-78
2021/04/18 08:15:57;;;;;;;8.60;6.88;;;;;;;5.43;73.29;96722.50;5053816;28;20462;-79
2021/04/18 08:18:40;;;;;;;9.90;7.50;;;;;;;5.42;72.44;96726.09;5019537;28;20033;-78
2021/04/18 08:21:23;;;;;;;10.07;7.57;;;;;;;5.45;71.75;96722.34;5054449;28;20040;-78
2021/04/18 08:23:50;;;;;;;10.73;8.90;;;;;;;5.52;74.19;96723.22;5052973;28;20048;-79
2021/04/18 08:26:18;;;;;;;10.38;8.00;;;;;;;5.63;74.16;96724.59;5053007;28;20052;-79
2021/04/18 08:29:02;;;;;;;11.13;9.70;;;;;;;5.57;72.15;96722.72;5058705;28;20049;-79
2021/04/18 08:31:31;;;;;;;13.95;7.57;;;;;;;5.50;73.08;96727.78;5073709;28;20059;-78
2021/04/18 08:34:05;;;;;;;10.80;8.32;;;;;;;5.53;73.28;96724.06;5073611;28;20055;-79
2021/04/18 08:36:34;;;;;;;11.73;8.40;;;;;;;5.58;73.51;96719.09;5073894;28;20040;-78
2021/04/18 08:39:00;;;;;;;12.27;8.90;;;;;;;5.57;72.71;96730.50;5073610;28;20029;-79
2021/04/18 08:41:42;;;;;;;16.95;12.77;;;;;;;5.48;71.10;96733.19;5073648;28;20036;-78
2021/04/18 08:44:15;;;;;;;9.52;8.23;;;;;;;5.49;71.99;96731.41;5063733;28;20032;-78
2021/04/18 08:46:43;;;;;;;15.15;8.30;;;;;;;5.61;72.97;96739.56;5071987;28;20036;-77
2021/04/18 08:49:10;;;;;;;12.65;8.68;;;;;;;5.70;72.86;96735.88;5072149;28;20028;-77
2021/04/18 08:51:38;;;;;;;10.65;8.43;;;;;;;5.77;72.81;96730.75;5074054;28;20052;-78
2021/04/18 08:54:06;;;;;;;13.70;8.73;;;;;;;5.81;72.72;96740.63;5073156;28;20104;-79
2021/04/18 08:56:49;;;;;;;12.02;9.32;;;;;;;5.82;71.67;96741.47;5073434;28;20040;-78
2021/04/18 08:59:19;;;;;;;13.93;8.27;;;;;;;5.80;71.81;96738.22;5055386;28;20040;-79
2021/04/18 09:02:10;;;;;;;13.93;9.55;;;;;;;5.67;69.12;96734.47;5072969;28;20286;-79
2021/04/18 09:04:43;;;;;;;13.32;8.88;;;;;;;5.56;70.31;96747.91;5073367;28;20048;-79
2021/04/18 09:07:13;;;;;;;15.50;10.30;;;;;;;5.51;71.36;96744.22;5073422;28;20388;-79
2021/04/18 09:09:40;;;;;;;14.25;9.65;;;;;;;5.42;71.18;96748.72;5073238;28;20040;-79
2021/04/18 09:12:07;;;;;;;13.95;9.57;;;;;;;5.37;71.49;96751.03;5071622;28;20052;-79
2021/04/18 09:14:36;;;;;;;13.60;8.63;;;;;;;5.37;71.59;96740.63;5072563;28;20045;-79
2021/04/18 09:17:15;;;;;;;13.27;8.65;;;;;;;5.48;72.54;96746.19;5071678;28;20039;-79
2021/04/18 09:19:50;;;;;;;17.00;9.75;;;;;;;5.60;72.15;96746.56;5072035;28;20063;-79
2021/04/18 09:22:20;;;;;;;14.38;9.55;;;;;;;5.67;72.13;96751.88;5072064;28;20040;-79
2021/04/18 09:24:54;;;;;;;19.02;9.02;;;;;;;5.67;71.78;96755.28;5072479;28;20049;-79
2021/04/18 09:27:32;;;;;;;12.73;8.40;;;;;;;5.70;71.52;96757.50;5061383;28;20420;-79
2021/04/18 09:30:05;;;;;;;9.20;5.90;;;;;;;5.83;72.82;96750.88;5041235;28;20041;-76
2021/04/18 09:32:38;;;;;;;15.75;8.63;;;;;;;6.47;75.81;96748.47;5053026;28;20393;-80
2021/04/18 09:35:06;;;;;;;11.95;8.32;;;;;;;6.64;72.30;96751.66;5051854;28;20041;-80
2021/04/18 09:37:37;;;;;;;14.10;8.55;;;;;;;6.64;71.42;96756.84;5052040;28;20052;-80
2021/04/18 09:40:11;;;;;;;9.63;7.60;;;;;;;6.61;70.63;96753.81;5052998;28;20037;-80
2021/04/18 09:42:42;;;;;;;11.98;8.60;;;;;;;6.54;70.48;96755.56;5053308;28;20032;-80
2021/04/18 09:45:26;;;;;;;8.77;7.88;;;;;;;6.49;70.25;96756.09;5034934;28;20049;-80
2021/04/18 09:47:54;;;;;;;10.27;7.68;;;;;;;6.43;70.26;96756.84;5052320;28;20034;-80
2021/04/18 09:50:25;;;;;;;9.90;7.75;;;;;;;6.20;69.75;96755.19;5052611;28;20050;-79
2021/04/18 09:52:51;;;;;;;10.13;7.45;;;;;;;5.96;69.90;96752.88;5053118;28;20527;-80
2021/04/18 09:55:30;;;;;;;9.63;7.88;;;;;;;5.82;70.57;96754.47;5034830;28;20041;-79
2021/04/18 09:57:59;;;;;;;11.15;7.65;;;;;;;5.84;70.88;96758.50;5041948;28;20041;-79
2021/04/18 10:00:34;;;;;;;8.82;7.63;;;;;;;5.99;70.86;96752.50;5052499;28;20051;-80
2021/04/18 10:03:11;;;;;;;9.70;7.75;;;;;;;6.17;70.68;96750.31;5039174;28;20389;-79
2021/04/18 10:05:43;;;;;;;9.35;7.68;;;;;;;6.38;70.40;96756.56;5034358;28;20029;-79
2021/04/18 10:08:13;;;;;;;12.93;7.38;;;;;;;6.45;69.85;96750.44;5034517;28;20036;-79
2021/04/18 10:10:40;;;;;;;10.05;7.05;;;;;;;6.45;69.48;96754.84;5034434;28;20033;-79
2021/04/18 10:13:06;;;;;;;9.52;7.53;;;;;;;6.45;69.62;96745.25;5052468;28;20033;-80
2021/04/18 10:15:32;;;;;;;16.48;11.20;;;;;;;6.45;69.03;96755.66;5052381;28;20041;-79
2021/04/18 10:18:10;;;;;;;15.80;14.20;;;;;;;6.45;67.66;96749.66;5052627;28;20041;-79
2021/04/18 10:20:36;;;;;;;10.60;7.43;;;;;;;6.48;68.79;96752.69;5037180;28;20048;-80
2021/04/18 10:23:08;;;;;;;16.02;13.13;;;;;;;6.58;68.37;96751.59;5051231;28;20048;-80
2021/04/18 10:25:37;;;;;;;13.48;12.07;;;;;;;6.73;69.07;96754.13;5052593;28;20052;-78
2021/04/18 10:28:06;;;;;;;7.43;6.63;;;;;;;6.82;68.32;96751.19;5052364;28;20386;-79
2021/04/18 10:30:35;;;;;;;9.50;7.55;;;;;;;6.78;67.93;96749.16;5052241;28;20049;-80
2021/04/18 10:33:01;;;;;;;8.93;7.05;;;;;;;6.88;68.05;96744.44;5055653;28;20033;-80
2021/04/18 10:35:27;;;;;;;8.35;7.50;;;;;;;6.97;67.82;96743.34;5038094;28;20041;-80
2021/04/18 10:37:53;;;;;;;9.80;6.63;;;;;;;7.10;67.62;96734.81;5021764;28;20037;-80
2021/04/18 10:40:27;;;;;;;11.30;7.30;;;;;;;7.21;67.43;96742.13;5056358;28;20041;-80
2021/04/18 10:42:54;;;;;;;9.00;6.70;;;;;;;7.27;66.94;96732.75;5038322;28;20033;-80
2021/04/18 10:45:32;;;;;;;9.40;6.85;;;;;;;7.23;66.71;96732.31;5039421;28;20048;-80
2021/04/18 10:47:58;;;;;;;11.73;7.53;;;;;;;7.20;66.72;96726.66;5020294;28;20045;-80
2021/04/18 10:50:24;;;;;;;12.20;7.60;;;;;;;7.16;66.56;96734.06;5038132;28;20040;-80
2021/04/18 10:52:50;;;;;;;11.00;7.15;;;;;;;7.07;65.99;96733.38;5037155;28;20041;-80
2021/04/18 10:55:17;;;;;;;7.50;6.35;;;;;;;6.97;65.70;96745.13;5055438;28;20043;-80
2021/04/18 10:57:43;;;;;;;8.20;6.63;;;;;;;6.89;65.97;96728.63;5021458;28;20052;-81
2021/04/18 11:00:10;;;;;;;10.68;7.30;;;;;;;6.91;66.06;96733.66;5055774;28;20041;-80
2021/04/18 11:02:36;;;;;;;11.70;7.03;;;;;;;6.97;66.06;96732.91;5021516;28;20040;-80
2021/04/18 11:05:12;;;;;;;8.73;6.60;;;;;;;7.02;65.79;96734.94;5039039;28;20044;-80
2021/04/18 11:07:44;;;;;;;8.97;6.27;;;;;;;7.02;65.55;96735.75;5054066;28;20041;-80
2021/04/18 11:10:11;;;;;;;9.18;6.28;;;;;;;7.04;65.48;96735.56;5037544;28;20040;-80
2021/04/18 11:12:37;;;;;;;8.07;6.38;;;;;;;7.05;65.47;96737.16;5037139;28;20048;-80
2021/04/18 11:15:05;;;;;;;9.50;6.53;;;;;;;7.09;65.14;96736.59;5055111;28;20045;-81
2021/04/18 11:17:33;;;;;;;6.95;6.03;;;;;;;7.14;65.05;96732.63;5054264;28;20041;-80
2021/04/18 11:19:59;;;;;;;7.25;6.50;;;;;;;7.20;65.07;96729.25;5055459;28;20037;-79
2021/04/18 11:22:26;;;;;;;7.18;5.80;;;;;;;7.27;64.94;96725.72;5037433;28;20036;-80
2021/04/18 11:24:53;;;;;;;6.03;5.43;;;;;;;7.37;64.48;96722.78;5054147;28;20509;-80
2021/04/18 11:27:20;;;;;;;7.75;5.47;;;;;;;7.43;64.43;96722.03;5054719;28;20040;-80
2021/04/18 11:29:46;;;;;;;8.65;5.90;;;;;;;7.49;63.85;96720.44;5037353;28;20041;-80
2021/04/18 11:32:12;;;;;;;9.63;6.30;;;;;;;7.51;63.68;96723.66;5037196;28;20048;-80
2021/04/18 11:34:39;;;;;;;7.45;6.35;;;;;;;7.52;63.69;96723.47;5054098;28;20413;-80
2021/04/18 11:37:06;;;;;;;6.68;5.97;;;;;;;7.56;63.24;96718.69;5054948;28;20041;-80
2021/04/18 11:39:32;;;;;;;7.03;6.15;;;;;;;7.59;63.32;96717.50;5055025;28;20044;-81
2021/04/18 11:41:59;;;;;;;8.27;6.85;;;;;;;7.64;63.00;96718.53;5036808;28;20033;-80
2021/04/18 11:44:25;;;;;;;9.65;5.43;;;;;;;7.58;62.79;96718.47;5036449;28;20045;-80